sensor_id;sensor_type;location;lat;lon;timestamp;P1;durP1;ratioP1;P2;durP2;ratioP2
4001;SDS011;2015;48.670;9.060;2022-09-24T00:01:58;13.60;;;12.10;;
4001;SDS011;2015;48.670;9.060;2022-09-24T00:04:31;13.87;;;12.43;;
4001;SDS011;2015;48.670;9.060;2022-09-24T00:07:02;13.30;;;12.00;;
4001;SDS011;2015;48.670;9.060;2022-09-24T00:09:34;14.50;;;13.10;;
4001;SDS011;2015;48.670;9.060;2022-09-24T00:12:06;15.07;;;13.47;;
4001;SDS011;2015;48.670;9.060;2022-09-24T00:14:38;19.13;;;13.70;;
4001;SDS011;2015;48.670;9.060;2022-09-24T00:17:10;14.67;;;13.27;;
4001;SDS011;2015;48.670;9.060;2022-09-24T00:19:42;17.17;;;13.43;;
4001;SDS011;2015;48.670;9.060;2022-09-24T00:22:14;14.03;;;12.83;;
4001;SDS011;2015;48.670;9.060;2022-09-24T00:24:46;13.63;;;12.33;;
4001;SDS011;2015;48.670;9.060;2022-09-24T00:27:36;13.50;;;12.20;;
4001;SDS011;2015;48.670;9.060;2022-09-24T00:30:08;14.43;;;12.80;;
4001;SDS011;2015;48.670;9.060;2022-09-24T00:32:40;12.53;;;11.40;;
4001;SDS011;2015;48.670;9.060;2022-09-24T00:35:11;13.40;;;12.00;;
4001;SDS011;2015;48.670;9.060;2022-09-24T00:37:43;12.80;;;11.60;;
4001;SDS011;2015;48.670;9.060;2022-09-24T00:40:15;14.00;;;12.43;;
4001;SDS011;2015;48.670;9.060;2022-09-24T00:42:47;13.93;;;12.50;;
4001;SDS011;2015;48.670;9.060;2022-09-24T00:45:18;14.10;;;12.83;;
4001;SDS011;2015;48.670;9.060;2022-09-24T00:47:50;13.43;;;12.23;;
4001;SDS011;2015;48.670;9.060;2022-09-24T00:50:30;13.83;;;12.60;;
4001;SDS011;2015;48.670;9.060;2022-09-24T00:53:09;13.47;;;12.17;;
4001;SDS011;2015;48.670;9.060;2022-09-24T00:55:46;14.23;;;12.47;;
4001;SDS011;2015;48.670;9.060;2022-09-24T00:58:21;15.20;;;12.70;;
4001;SDS011;2015;48.670;9.060;2022-09-24T01:00:56;12.90;;;11.63;;
4001;SDS011;2015;48.670;9.060;2022-09-24T01:03:32;13.77;;;12.52;;
4001;SDS011;2015;48.670;9.060;2022-09-24T01:06:11;15.97;;;12.50;;
4001;SDS011;2015;48.670;9.060;2022-09-24T01:08:43;12.10;;;11.00;;
4001;SDS011;2015;48.670;9.060;2022-09-24T01:19:43;14.83;;;10.10;;
4001;SDS011;2015;48.670;9.060;2022-09-24T01:31:21;14.20;;;11.90;;
4001;SDS011;2015;48.670;9.060;2022-09-24T01:33:59;13.93;;;12.33;;
4001;SDS011;2015;48.670;9.060;2022-09-24T01:36:35;12.83;;;11.60;;
4001;SDS011;2015;48.670;9.060;2022-09-24T01:39:10;11.77;;;10.47;;
4001;SDS011;2015;48.670;9.060;2022-09-24T01:41:44;12.60;;;11.30;;
4001;SDS011;2015;48.670;9.060;2022-09-24T01:44:17;15.97;;;11.83;;
4001;SDS011;2015;48.670;9.060;2022-09-24T01:46:49;12.97;;;11.73;;
4001;SDS011;2015;48.670;9.060;2022-09-24T01:49:22;14.37;;;12.80;;
4001;SDS011;2015;48.670;9.060;2022-09-24T01:51:54;12.10;;;10.97;;
4001;SDS011;2015;48.670;9.060;2022-09-24T01:54:33;16.53;;;13.03;;
4001;SDS011;2015;48.670;9.060;2022-09-24T01:57:13;14.18;;;12.18;;
4001;SDS011;2015;48.670;9.060;2022-09-24T01:59:51;12.90;;;11.57;;
4001;SDS011;2015;48.670;9.060;2022-09-24T02:05:07;14.77;;;13.27;;
4001;SDS011;2015;48.670;9.060;2022-09-24T02:07:50;13.17;;;11.83;;
4001;SDS011;2015;48.670;9.060;2022-09-24T02:11:01;13.90;;;12.40;;
4001;SDS011;2015;48.670;9.060;2022-09-24T02:13:41;13.80;;;12.40;;
4001;SDS011;2015;48.670;9.060;2022-09-24T02:16:28;16.93;;;12.90;;
4001;SDS011;2015;48.670;9.060;2022-09-24T02:19:04;14.67;;;13.17;;
4001;SDS011;2015;48.670;9.060;2022-09-24T02:21:39;27.27;;;14.53;;
4001;SDS011;2015;48.670;9.060;2022-09-24T02:24:14;16.70;;;14.90;;
4001;SDS011;2015;48.670;9.060;2022-09-24T02:26:49;15.20;;;13.53;;
4001;SDS011;2015;48.670;9.060;2022-09-24T02:29:21;21.37;;;14.30;;
4001;SDS011;2015;48.670;9.060;2022-09-24T02:31:53;15.33;;;13.73;;
4001;SDS011;2015;48.670;9.060;2022-09-24T02:34:42;14.43;;;13.00;;
4001;SDS011;2015;48.670;9.060;2022-09-24T02:37:20;14.03;;;12.57;;
4001;SDS011;2015;48.670;9.060;2022-09-24T02:39:54;18.03;;;13.90;;
4001;SDS011;2015;48.670;9.060;2022-09-24T02:42:26;21.20;;;14.00;;
4001;SDS011;2015;48.670;9.060;2022-09-24T02:44:57;17.47;;;13.23;;
4001;SDS011;2015;48.670;9.060;2022-09-24T02:47:30;16.30;;;13.40;;
4001;SDS011;2015;48.670;9.060;2022-09-24T02:50:03;14.23;;;12.80;;
4001;SDS011;2015;48.670;9.060;2022-09-24T02:52:35;15.20;;;12.50;;
4001;SDS011;2015;48.670;9.060;2022-09-24T02:55:06;16.70;;;13.63;;
4001;SDS011;2015;48.670;9.060;2022-09-24T02:57:38;18.37;;;14.63;;
4001;SDS011;2015;48.670;9.060;2022-09-24T03:00:10;14.03;;;12.60;;
4001;SDS011;2015;48.670;9.060;2022-09-24T03:02:42;17.30;;;14.37;;
4001;SDS011;2015;48.670;9.060;2022-09-24T03:05:14;15.33;;;13.80;;
4001;SDS011;2015;48.670;9.060;2022-09-24T03:07:50;14.20;;;12.70;;
4001;SDS011;2015;48.670;9.060;2022-09-24T03:10:21;15.33;;;13.80;;
4001;SDS011;2015;48.670;9.060;2022-09-24T03:12:54;14.00;;;12.70;;
4001;SDS011;2015;48.670;9.060;2022-09-24T03:15:26;22.80;;;13.47;;
4001;SDS011;2015;48.670;9.060;2022-09-24T03:18:00;16.55;;;12.88;;
4001;SDS011;2015;48.670;9.060;2022-09-24T03:20:31;15.83;;;12.50;;
4001;SDS011;2015;48.670;9.060;2022-09-24T03:23:03;11.83;;;10.70;;
4001;SDS011;2015;48.670;9.060;2022-09-24T03:25:35;13.37;;;12.27;;
4001;SDS011;2015;48.670;9.060;2022-09-24T03:28:07;13.83;;;11.97;;
4001;SDS011;2015;48.670;9.060;2022-09-24T03:30:38;19.63;;;13.30;;
4001;SDS011;2015;48.670;9.060;2022-09-24T03:36:09;16.10;;;13.10;;
4001;SDS011;2015;48.670;9.060;2022-09-24T03:38:51;16.60;;;14.97;;
4001;SDS011;2015;48.670;9.060;2022-09-24T03:41:26;16.83;;;14.60;;
4001;SDS011;2015;48.670;9.060;2022-09-24T03:43:58;13.77;;;12.50;;
4001;SDS011;2015;48.670;9.060;2022-09-24T03:46:30;16.20;;;14.60;;
4001;SDS011;2015;48.670;9.060;2022-09-24T03:49:02;15.40;;;13.50;;
4001;SDS011;2015;48.670;9.060;2022-09-24T03:51:34;15.63;;;14.03;;
4001;SDS011;2015;48.670;9.060;2022-09-24T03:54:05;17.37;;;12.87;;
4001;SDS011;2015;48.670;9.060;2022-09-24T03:56:37;15.77;;;13.17;;
4001;SDS011;2015;48.670;9.060;2022-09-24T03:59:09;14.00;;;12.57;;
4001;SDS011;2015;48.670;9.060;2022-09-24T04:01:41;13.13;;;11.70;;
4001;SDS011;2015;48.670;9.060;2022-09-24T04:04:13;13.63;;;11.47;;
4001;SDS011;2015;48.670;9.060;2022-09-24T04:06:46;12.40;;;11.30;;
4001;SDS011;2015;48.670;9.060;2022-09-24T04:09:18;13.50;;;12.20;;
4001;SDS011;2015;48.670;9.060;2022-09-24T04:11:49;13.23;;;11.77;;
4001;SDS011;2015;48.670;9.060;2022-09-24T04:14:22;15.77;;;14.00;;
4001;SDS011;2015;48.670;9.060;2022-09-24T04:16:54;13.83;;;12.53;;
4001;SDS011;2015;48.670;9.060;2022-09-24T04:19:26;14.33;;;12.80;;
4001;SDS011;2015;48.670;9.060;2022-09-24T04:21:58;13.40;;;12.20;;
4001;SDS011;2015;48.670;9.060;2022-09-24T04:24:30;12.83;;;11.47;;
4001;SDS011;2015;48.670;9.060;2022-09-24T04:27:01;13.70;;;11.00;;
4001;SDS011;2015;48.670;9.060;2022-09-24T04:29:33;12.00;;;10.80;;
4001;SDS011;2015;48.670;9.060;2022-09-24T04:32:05;11.93;;;10.87;;
4001;SDS011;2015;48.670;9.060;2022-09-24T04:34:37;11.10;;;10.10;;
4001;SDS011;2015;48.670;9.060;2022-09-24T04:37:08;11.20;;;10.30;;
4001;SDS011;2015;48.670;9.060;2022-09-24T04:39:40;11.90;;;10.70;;
4001;SDS011;2015;48.670;9.060;2022-09-24T04:42:15;12.40;;;11.27;;
4001;SDS011;2015;48.670;9.060;2022-09-24T04:44:48;12.23;;;11.03;;
4001;SDS011;2015;48.670;9.060;2022-09-24T04:47:26;11.60;;;10.70;;
4001;SDS011;2015;48.670;9.060;2022-09-24T04:49:57;12.70;;;11.40;;
4001;SDS011;2015;48.670;9.060;2022-09-24T04:52:30;12.63;;;11.13;;
4001;SDS011;2015;48.670;9.060;2022-09-24T04:55:03;12.20;;;11.10;;
4001;SDS011;2015;48.670;9.060;2022-09-24T04:57:35;11.90;;;10.90;;
4001;SDS011;2015;48.670;9.060;2022-09-24T05:00:08;14.47;;;12.47;;
4001;SDS011;2015;48.670;9.060;2022-09-24T05:02:44;14.93;;;13.40;;
4001;SDS011;2015;48.670;9.060;2022-09-24T05:05:17;12.82;;;11.43;;
4001;SDS011;2015;48.670;9.060;2022-09-24T05:07:49;12.47;;;11.40;;
4001;SDS011;2015;48.670;9.060;2022-09-24T05:10:21;13.40;;;12.00;;
4001;SDS011;2015;48.670;9.060;2022-09-24T05:12:54;15.10;;;13.40;;
4001;SDS011;2015;48.670;9.060;2022-09-24T05:15:26;15.77;;;13.27;;
4001;SDS011;2015;48.670;9.060;2022-09-24T05:17:58;15.60;;;14.10;;
4001;SDS011;2015;48.670;9.060;2022-09-24T05:20:29;15.60;;;13.53;;
4001;SDS011;2015;48.670;9.060;2022-09-24T05:23:02;13.50;;;12.20;;
4001;SDS011;2015;48.670;9.060;2022-09-24T05:25:33;13.70;;;12.17;;
4001;SDS011;2015;48.670;9.060;2022-09-24T05:28:25;14.17;;;12.13;;
4001;SDS011;2015;48.670;9.060;2022-09-24T05:31:00;13.07;;;11.77;;
4001;SDS011;2015;48.670;9.060;2022-09-24T05:33:32;12.90;;;11.70;;
4001;SDS011;2015;48.670;9.060;2022-09-24T05:36:04;13.00;;;11.80;;
4001;SDS011;2015;48.670;9.060;2022-09-24T05:38:36;14.13;;;12.93;;
4001;SDS011;2015;48.670;9.060;2022-09-24T05:41:11;17.53;;;13.17;;
4001;SDS011;2015;48.670;9.060;2022-09-24T05:43:43;12.70;;;11.40;;
4001;SDS011;2015;48.670;9.060;2022-09-24T05:46:15;13.80;;;11.50;;
4001;SDS011;2015;48.670;9.060;2022-09-24T05:48:47;14.90;;;13.40;;
4001;SDS011;2015;48.670;9.060;2022-09-24T05:51:19;20.00;;;14.40;;
4001;SDS011;2015;48.670;9.060;2022-09-24T05:53:51;15.23;;;13.83;;
4001;SDS011;2015;48.670;9.060;2022-09-24T05:56:23;15.10;;;12.97;;
4001;SDS011;2015;48.670;9.060;2022-09-24T05:58:55;15.53;;;12.83;;
4001;SDS011;2015;48.670;9.060;2022-09-24T06:01:27;18.27;;;14.30;;
4001;SDS011;2015;48.670;9.060;2022-09-24T06:04:01;16.80;;;14.83;;
4001;SDS011;2015;48.670;9.060;2022-09-24T06:06:39;15.20;;;13.77;;
4001;SDS011;2015;48.670;9.060;2022-09-24T06:09:10;15.13;;;13.60;;
4001;SDS011;2015;48.670;9.060;2022-09-24T06:11:42;14.77;;;13.20;;
4001;SDS011;2015;48.670;9.060;2022-09-24T06:14:14;16.57;;;14.97;;
4001;SDS011;2015;48.670;9.060;2022-09-24T06:16:46;16.57;;;14.90;;
4001;SDS011;2015;48.670;9.060;2022-09-24T06:19:17;14.67;;;13.10;;
4001;SDS011;2015;48.670;9.060;2022-09-24T06:21:49;16.67;;;13.53;;
4001;SDS011;2015;48.670;9.060;2022-09-24T06:24:21;13.63;;;12.30;;
4001;SDS011;2015;48.670;9.060;2022-09-24T06:26:53;13.53;;;12.17;;
4001;SDS011;2015;48.670;9.060;2022-09-24T06:29:25;15.75;;;12.40;;
4001;SDS011;2015;48.670;9.060;2022-09-24T06:31:57;16.30;;;14.60;;
4001;SDS011;2015;48.670;9.060;2022-09-24T06:34:30;13.63;;;12.30;;
4001;SDS011;2015;48.670;9.060;2022-09-24T06:37:02;13.83;;;12.20;;
4001;SDS011;2015;48.670;9.060;2022-09-24T06:39:33;14.10;;;12.60;;
4001;SDS011;2015;48.670;9.060;2022-09-24T06:42:05;14.97;;;13.67;;
4001;SDS011;2015;48.670;9.060;2022-09-24T06:44:37;13.80;;;12.50;;
4001;SDS011;2015;48.670;9.060;2022-09-24T06:47:09;13.20;;;11.90;;
4001;SDS011;2015;48.670;9.060;2022-09-24T06:49:42;13.27;;;12.00;;
4001;SDS011;2015;48.670;9.060;2022-09-24T06:52:14;13.70;;;12.40;;
4001;SDS011;2015;48.670;9.060;2022-09-24T06:54:46;12.90;;;11.45;;
4001;SDS011;2015;48.670;9.060;2022-09-24T06:57:18;13.83;;;12.50;;
4001;SDS011;2015;48.670;9.060;2022-09-24T06:59:50;12.57;;;11.30;;
4001;SDS011;2015;48.670;9.060;2022-09-24T07:02:22;13.00;;;11.80;;
4001;SDS011;2015;48.670;9.060;2022-09-24T07:04:54;13.37;;;12.27;;
4001;SDS011;2015;48.670;9.060;2022-09-24T07:07:25;14.60;;;13.10;;
4001;SDS011;2015;48.670;9.060;2022-09-24T07:10:01;15.30;;;13.10;;
4001;SDS011;2015;48.670;9.060;2022-09-24T07:12:35;13.17;;;12.00;;
4001;SDS011;2015;48.670;9.060;2022-09-24T07:15:08;12.97;;;11.80;;
4001;SDS011;2015;48.670;9.060;2022-09-24T07:17:40;13.13;;;11.83;;
4001;SDS011;2015;48.670;9.060;2022-09-24T07:20:12;13.30;;;11.97;;
4001;SDS011;2015;48.670;9.060;2022-09-24T07:22:44;12.13;;;11.07;;
4001;SDS011;2015;48.670;9.060;2022-09-24T07:25:16;12.00;;;11.00;;
4001;SDS011;2015;48.670;9.060;2022-09-24T07:27:47;12.13;;;9.90;;
4001;SDS011;2015;48.670;9.060;2022-09-24T07:30:19;10.40;;;9.50;;
4001;SDS011;2015;48.670;9.060;2022-09-24T07:32:55;10.60;;;9.70;;
4001;SDS011;2015;48.670;9.060;2022-09-24T07:35:27;11.50;;;10.43;;
4001;SDS011;2015;48.670;9.060;2022-09-24T07:38:00;9.23;;;8.63;;
4001;SDS011;2015;48.670;9.060;2022-09-24T07:40:33;9.10;;;8.40;;
4001;SDS011;2015;48.670;9.060;2022-09-24T07:43:05;10.53;;;9.73;;
4001;SDS011;2015;48.670;9.060;2022-09-24T07:45:42;12.77;;;8.87;;
4001;SDS011;2015;48.670;9.060;2022-09-24T07:48:14;16.10;;;9.35;;
4001;SDS011;2015;48.670;9.060;2022-09-24T07:50:46;9.10;;;8.30;;
4001;SDS011;2015;48.670;9.060;2022-09-24T07:53:18;10.70;;;8.93;;
4001;SDS011;2015;48.670;9.060;2022-09-24T07:55:51;9.37;;;8.57;;
4001;SDS011;2015;48.670;9.060;2022-09-24T07:58:23;9.13;;;8.50;;
4001;SDS011;2015;48.670;9.060;2022-09-24T08:01:01;9.77;;;8.83;;
4001;SDS011;2015;48.670;9.060;2022-09-24T08:03:33;9.73;;;7.90;;
4001;SDS011;2015;48.670;9.060;2022-09-24T08:06:05;8.50;;;7.70;;
4001;SDS011;2015;48.670;9.060;2022-09-24T08:08:37;8.50;;;7.80;;
4001;SDS011;2015;48.670;9.060;2022-09-24T08:11:10;9.53;;;8.83;;
4001;SDS011;2015;48.670;9.060;2022-09-24T08:13:48;9.30;;;8.40;;
4001;SDS011;2015;48.670;9.060;2022-09-24T08:16:20;8.80;;;8.10;;
4001;SDS011;2015;48.670;9.060;2022-09-24T08:18:52;8.73;;;8.02;;
4001;SDS011;2015;48.670;9.060;2022-09-24T08:21:25;12.30;;;8.73;;
4001;SDS011;2015;48.670;9.060;2022-09-24T08:23:58;9.33;;;8.43;;
4001;SDS011;2015;48.670;9.060;2022-09-24T08:26:29;10.30;;;9.30;;
4001;SDS011;2015;48.670;9.060;2022-09-24T08:29:01;9.33;;;8.63;;
4001;SDS011;2015;48.670;9.060;2022-09-24T08:31:33;9.57;;;8.77;;
4001;SDS011;2015;48.670;9.060;2022-09-24T08:34:05;10.30;;;8.07;;
4001;SDS011;2015;48.670;9.060;2022-09-24T08:36:36;9.23;;;8.40;;
4001;SDS011;2015;48.670;9.060;2022-09-24T08:39:13;9.50;;;8.80;;
4001;SDS011;2015;48.670;9.060;2022-09-24T08:41:53;11.10;;;9.37;;
4001;SDS011;2015;48.670;9.060;2022-09-24T08:50:11;9.20;;;8.50;;
4001;SDS011;2015;48.670;9.060;2022-09-24T08:55:34;8.43;;;7.67;;
4001;SDS011;2015;48.670;9.060;2022-09-24T09:07:09;8.27;;;7.50;;
4001;SDS011;2015;48.670;9.060;2022-09-24T09:09:45;10.03;;;9.23;;
4001;SDS011;2015;48.670;9.060;2022-09-24T09:12:21;7.77;;;7.30;;
4001;SDS011;2015;48.670;9.060;2022-09-24T09:15:02;8.60;;;7.77;;
4001;SDS011;2015;48.670;9.060;2022-09-24T09:17:44;9.10;;;8.30;;
4001;SDS011;2015;48.670;9.060;2022-09-24T09:20:37;8.87;;;8.03;;
4001;SDS011;2015;48.670;9.060;2022-09-24T09:23:16;9.40;;;8.50;;
4001;SDS011;2015;48.670;9.060;2022-09-24T09:25:55;8.60;;;8.10;;
4001;SDS011;2015;48.670;9.060;2022-09-24T09:28:31;8.50;;;7.77;;
4001;SDS011;2015;48.670;9.060;2022-09-24T09:34:36;7.80;;;7.20;;
4001;SDS011;2015;48.670;9.060;2022-09-24T09:43:03;6.50;;;5.93;;
4001;SDS011;2015;48.670;9.060;2022-09-24T09:48:23;7.17;;;6.57;;
4001;SDS011;2015;48.670;9.060;2022-09-24T09:51:00;6.80;;;6.20;;
4001;SDS011;2015;48.670;9.060;2022-09-24T09:53:35;7.00;;;6.20;;
4001;SDS011;2015;48.670;9.060;2022-09-24T09:56:08;6.40;;;5.90;;
4001;SDS011;2015;48.670;9.060;2022-09-24T09:58:44;7.60;;;7.00;;
4001;SDS011;2015;48.670;9.060;2022-09-24T10:01:29;6.97;;;6.43;;
4001;SDS011;2015;48.670;9.060;2022-09-24T10:04:02;7.90;;;7.20;;
4001;SDS011;2015;48.670;9.060;2022-09-24T10:06:35;7.63;;;7.03;;
4001;SDS011;2015;48.670;9.060;2022-09-24T10:09:10;7.47;;;6.83;;
4001;SDS011;2015;48.670;9.060;2022-09-24T10:11:47;6.17;;;5.77;;
4001;SDS011;2015;48.670;9.060;2022-09-24T10:14:19;8.17;;;7.67;;
4001;SDS011;2015;48.670;9.060;2022-09-24T10:16:52;7.50;;;6.83;;
4001;SDS011;2015;48.670;9.060;2022-09-24T10:19:25;6.53;;;6.13;;
4001;SDS011;2015;48.670;9.060;2022-09-24T10:22:05;6.33;;;5.80;;
4001;SDS011;2015;48.670;9.060;2022-09-24T10:24:57;5.67;;;5.17;;
4001;SDS011;2015;48.670;9.060;2022-09-24T10:27:32;7.87;;;6.20;;
4001;SDS011;2015;48.670;9.060;2022-09-24T10:30:12;7.20;;;6.50;;
4001;SDS011;2015;48.670;9.060;2022-09-24T10:33:04;7.50;;;7.00;;
4001;SDS011;2015;48.670;9.060;2022-09-24T10:35:38;7.07;;;6.57;;
4001;SDS011;2015;48.670;9.060;2022-09-24T10:38:14;7.30;;;6.70;;
4001;SDS011;2015;48.670;9.060;2022-09-24T10:40:48;7.60;;;6.90;;
4001;SDS011;2015;48.670;9.060;2022-09-24T10:43:21;8.77;;;7.90;;
4001;SDS011;2015;48.670;9.060;2022-09-24T10:48:44;7.33;;;6.47;;
4001;SDS011;2015;48.670;9.060;2022-09-24T10:51:38;8.00;;;7.20;;
4001;SDS011;2015;48.670;9.060;2022-09-24T10:57:33;6.83;;;6.43;;
4001;SDS011;2015;48.670;9.060;2022-09-24T11:00:20;6.77;;;6.30;;
4001;SDS011;2015;48.670;9.060;2022-09-24T11:03:04;9.40;;;8.47;;
4001;SDS011;2015;48.670;9.060;2022-09-24T11:05:52;8.23;;;7.63;;
4001;SDS011;2015;48.670;9.060;2022-09-24T11:08:38;8.60;;;7.80;;
4001;SDS011;2015;48.670;9.060;2022-09-24T11:14:19;8.43;;;7.73;;
4001;SDS011;2015;48.670;9.060;2022-09-24T11:17:07;9.33;;;8.43;;
4001;SDS011;2015;48.670;9.060;2022-09-24T11:25:48;8.90;;;8.02;;
4001;SDS011;2015;48.670;9.060;2022-09-24T11:28:39;9.27;;;8.37;;
4001;SDS011;2015;48.670;9.060;2022-09-24T11:31:21;10.00;;;9.20;;
4001;SDS011;2015;48.670;9.060;2022-09-24T11:34:25;8.00;;;7.40;;
4001;SDS011;2015;48.670;9.060;2022-09-24T11:37:27;9.50;;;8.70;;
4001;SDS011;2015;48.670;9.060;2022-09-24T11:40:24;9.43;;;8.43;;
4001;SDS011;2015;48.670;9.060;2022-09-24T11:43:11;9.20;;;8.40;;
4001;SDS011;2015;48.670;9.060;2022-09-24T11:46:07;9.53;;;8.80;;
4001;SDS011;2015;48.670;9.060;2022-09-24T11:57:51;11.43;;;9.13;;
4001;SDS011;2015;48.670;9.060;2022-09-24T12:00:33;8.17;;;7.43;;
4001;SDS011;2015;48.670;9.060;2022-09-24T12:06:06;9.30;;;8.40;;
4001;SDS011;2015;48.670;9.060;2022-09-24T12:08:54;8.13;;;7.40;;
4001;SDS011;2015;48.670;9.060;2022-09-24T12:11:35;8.70;;;8.00;;
4001;SDS011;2015;48.670;9.060;2022-09-24T12:16:52;7.83;;;6.67;;
4001;SDS011;2015;48.670;9.060;2022-09-24T12:19:33;9.48;;;8.68;;
4001;SDS011;2015;48.670;9.060;2022-09-24T12:22:12;8.97;;;8.27;;
4001;SDS011;2015;48.670;9.060;2022-09-24T12:24:50;6.80;;;6.30;;
4001;SDS011;2015;48.670;9.060;2022-09-24T12:27:26;6.67;;;6.27;;
4001;SDS011;2015;48.670;9.060;2022-09-24T12:30:05;6.93;;;6.53;;
4001;SDS011;2015;48.670;9.060;2022-09-24T12:33:23;7.03;;;6.53;;
4001;SDS011;2015;48.670;9.060;2022-09-24T12:38:37;8.87;;;8.17;;
4001;SDS011;2015;48.670;9.060;2022-09-24T12:41:22;7.70;;;7.10;;
4001;SDS011;2015;48.670;9.060;2022-09-24T12:44:12;7.40;;;6.67;;
4001;SDS011;2015;48.670;9.060;2022-09-24T12:46:52;7.40;;;6.83;;
4001;SDS011;2015;48.670;9.060;2022-09-24T12:49:29;6.82;;;6.32;;
4001;SDS011;2015;48.670;9.060;2022-09-24T12:54:56;6.50;;;6.00;;
4001;SDS011;2015;48.670;9.060;2022-09-24T12:57:41;8.70;;;6.87;;
4001;SDS011;2015;48.670;9.060;2022-09-24T13:03:02;6.17;;;5.73;;
4001;SDS011;2015;48.670;9.060;2022-09-24T13:13:27;13.20;;;11.73;;
4001;SDS011;2015;48.670;9.060;2022-09-24T13:18:36;31.43;;;20.60;;
4001;SDS011;2015;48.670;9.060;2022-09-24T13:21:15;9.23;;;8.33;;
4001;SDS011;2015;48.670;9.060;2022-09-24T13:23:50;8.00;;;7.20;;
4001;SDS011;2015;48.670;9.060;2022-09-24T13:26:29;8.53;;;7.00;;
4001;SDS011;2015;48.670;9.060;2022-09-24T13:29:04;9.10;;;8.40;;
4001;SDS011;2015;48.670;9.060;2022-09-24T13:31:53;7.40;;;6.60;;
4001;SDS011;2015;48.670;9.060;2022-09-24T13:34:33;7.37;;;6.87;;
4001;SDS011;2015;48.670;9.060;2022-09-24T13:37:25;7.83;;;7.13;;
4001;SDS011;2015;48.670;9.060;2022-09-24T13:40:06;6.77;;;6.27;;
4001;SDS011;2015;48.670;9.060;2022-09-24T13:42:51;6.33;;;5.97;;
4001;SDS011;2015;48.670;9.060;2022-09-24T13:45:28;7.77;;;7.07;;
4001;SDS011;2015;48.670;9.060;2022-09-24T13:48:04;6.87;;;6.30;;
4001;SDS011;2015;48.670;9.060;2022-09-24T13:50:53;8.10;;;7.20;;
4001;SDS011;2015;48.670;9.060;2022-09-24T13:56:12;7.83;;;7.13;;
4001;SDS011;2015;48.670;9.060;2022-09-24T13:58:46;6.07;;;5.70;;
4001;SDS011;2015;48.670;9.060;2022-09-24T14:01:25;5.60;;;5.10;;
4001;SDS011;2015;48.670;9.060;2022-09-24T14:04:04;6.60;;;6.20;;
4001;SDS011;2015;48.670;9.060;2022-09-24T14:06:55;6.83;;;6.43;;
4001;SDS011;2015;48.670;9.060;2022-09-24T14:09:30;6.23;;;5.83;;
4001;SDS011;2015;48.670;9.060;2022-09-24T14:12:14;7.18;;;6.57;;
4001;SDS011;2015;48.670;9.060;2022-09-24T14:14:52;6.90;;;6.30;;
4001;SDS011;2015;48.670;9.060;2022-09-24T14:17:28;7.20;;;6.60;;
4001;SDS011;2015;48.670;9.060;2022-09-24T14:20:00;6.97;;;5.97;;
4001;SDS011;2015;48.670;9.060;2022-09-24T14:22:36;6.67;;;6.07;;
4001;SDS011;2015;48.670;9.060;2022-09-24T14:25:13;7.07;;;6.57;;
4001;SDS011;2015;48.670;9.060;2022-09-24T14:27:48;9.07;;;8.17;;
4001;SDS011;2015;48.670;9.060;2022-09-24T14:30:22;7.13;;;6.30;;
4001;SDS011;2015;48.670;9.060;2022-09-24T14:32:56;5.63;;;5.23;;
4001;SDS011;2015;48.670;9.060;2022-09-24T14:35:37;6.87;;;6.37;;
4001;SDS011;2015;48.670;9.060;2022-09-24T14:38:13;7.30;;;6.60;;
4001;SDS011;2015;48.670;9.060;2022-09-24T14:40:52;6.70;;;6.10;;
4001;SDS011;2015;48.670;9.060;2022-09-24T14:46:13;6.80;;;6.20;;
4001;SDS011;2015;48.670;9.060;2022-09-24T14:48:51;6.13;;;5.60;;
4001;SDS011;2015;48.670;9.060;2022-09-24T14:51:34;6.20;;;5.80;;
4001;SDS011;2015;48.670;9.060;2022-09-24T14:54:19;6.37;;;5.97;;
4001;SDS011;2015;48.670;9.060;2022-09-24T14:59:47;7.00;;;6.40;;
4001;SDS011;2015;48.670;9.060;2022-09-24T15:02:34;7.00;;;6.40;;
4001;SDS011;2015;48.670;9.060;2022-09-24T15:05:07;5.57;;;5.18;;
4001;SDS011;2015;48.670;9.060;2022-09-24T15:07:39;6.50;;;6.00;;
4001;SDS011;2015;48.670;9.060;2022-09-24T15:10:18;5.90;;;5.50;;
4001;SDS011;2015;48.670;9.060;2022-09-24T15:12:52;5.93;;;5.53;;
4001;SDS011;2015;48.670;9.060;2022-09-24T15:15:25;6.50;;;6.00;;
4001;SDS011;2015;48.670;9.060;2022-09-24T15:17:59;6.53;;;6.03;;
4001;SDS011;2015;48.670;9.060;2022-09-24T15:20:31;6.53;;;6.10;;
4001;SDS011;2015;48.670;9.060;2022-09-24T15:23:03;6.13;;;5.73;;
4001;SDS011;2015;48.670;9.060;2022-09-24T15:25:34;6.00;;;5.60;;
4001;SDS011;2015;48.670;9.060;2022-09-24T15:28:10;5.60;;;5.20;;
4001;SDS011;2015;48.670;9.060;2022-09-24T15:30:44;5.50;;;5.20;;
4001;SDS011;2015;48.670;9.060;2022-09-24T15:33:15;6.10;;;5.70;;
4001;SDS011;2015;48.670;9.060;2022-09-24T15:35:48;10.20;;;7.33;;
4001;SDS011;2015;48.670;9.060;2022-09-24T15:38:20;5.77;;;5.27;;
4001;SDS011;2015;48.670;9.060;2022-09-24T15:40:52;6.23;;;5.83;;
4001;SDS011;2015;48.670;9.060;2022-09-24T15:43:24;6.87;;;6.47;;
4001;SDS011;2015;48.670;9.060;2022-09-24T15:45:55;6.30;;;5.77;;
4001;SDS011;2015;48.670;9.060;2022-09-24T15:48:27;5.82;;;5.40;;
4001;SDS011;2015;48.670;9.060;2022-09-24T15:51:00;6.37;;;5.93;;
4001;SDS011;2015;48.670;9.060;2022-09-24T15:53:40;7.23;;;6.73;;
4001;SDS011;2015;48.670;9.060;2022-09-24T15:56:12;6.70;;;6.20;;
4001;SDS011;2015;48.670;9.060;2022-09-24T15:58:45;6.70;;;6.15;;
4001;SDS011;2015;48.670;9.060;2022-09-24T16:01:16;9.60;;;7.73;;
4001;SDS011;2015;48.670;9.060;2022-09-24T16:03:49;7.57;;;6.97;;
4001;SDS011;2015;48.670;9.060;2022-09-24T16:06:20;6.90;;;6.50;;
4001;SDS011;2015;48.670;9.060;2022-09-24T16:08:54;7.63;;;6.97;;
4001;SDS011;2015;48.670;9.060;2022-09-24T16:11:25;6.50;;;5.90;;
4001;SDS011;2015;48.670;9.060;2022-09-24T16:13:57;6.97;;;6.37;;
4001;SDS011;2015;48.670;9.060;2022-09-24T16:16:29;9.07;;;7.13;;
4001;SDS011;2015;48.670;9.060;2022-09-24T16:19:00;10.87;;;9.77;;
4001;SDS011;2015;48.670;9.060;2022-09-24T16:21:32;7.23;;;6.73;;
4001;SDS011;2015;48.670;9.060;2022-09-24T16:24:04;8.93;;;7.80;;
4001;SDS011;2015;48.670;9.060;2022-09-24T16:26:36;6.93;;;6.23;;
4001;SDS011;2015;48.670;9.060;2022-09-24T16:29:08;8.00;;;7.40;;
4001;SDS011;2015;48.670;9.060;2022-09-24T16:31:42;8.03;;;7.33;;
4001;SDS011;2015;48.670;9.060;2022-09-24T16:34:15;8.43;;;7.63;;
4001;SDS011;2015;48.670;9.060;2022-09-24T16:36:46;9.93;;;8.40;;
4001;SDS011;2015;48.670;9.060;2022-09-24T16:39:18;14.07;;;10.10;;
4001;SDS011;2015;48.670;9.060;2022-09-24T16:41:50;13.03;;;10.53;;
4001;SDS011;2015;48.670;9.060;2022-09-24T16:44:23;11.77;;;10.63;;
4001;SDS011;2015;48.670;9.060;2022-09-24T16:46:54;16.60;;;11.90;;
4001;SDS011;2015;48.670;9.060;2022-09-24T16:49:26;12.60;;;10.60;;
4001;SDS011;2015;48.670;9.060;2022-09-24T16:51:58;9.17;;;8.47;;
4001;SDS011;2015;48.670;9.060;2022-09-24T16:54:30;8.27;;;7.60;;
4001;SDS011;2015;48.670;9.060;2022-09-24T16:57:02;7.70;;;7.17;;
4001;SDS011;2015;48.670;9.060;2022-09-24T16:59:36;7.20;;;6.70;;
4001;SDS011;2015;48.670;9.060;2022-09-24T17:02:08;8.57;;;7.77;;
4001;SDS011;2015;48.670;9.060;2022-09-24T17:04:42;8.30;;;7.70;;
4001;SDS011;2015;48.670;9.060;2022-09-24T17:07:14;8.97;;;8.23;;
4001;SDS011;2015;48.670;9.060;2022-09-24T17:09:45;9.00;;;8.10;;
4001;SDS011;2015;48.670;9.060;2022-09-24T17:12:36;8.87;;;7.97;;
4001;SDS011;2015;48.670;9.060;2022-09-24T17:15:08;10.23;;;9.23;;
4001;SDS011;2015;48.670;9.060;2022-09-24T17:17:42;9.50;;;8.70;;
4001;SDS011;2015;48.670;9.060;2022-09-24T17:20:20;9.40;;;8.50;;
4001;SDS011;2015;48.670;9.060;2022-09-24T17:22:52;10.55;;;9.55;;
4001;SDS011;2015;48.670;9.060;2022-09-24T17:25:23;11.03;;;10.03;;
4001;SDS011;2015;48.670;9.060;2022-09-24T17:27:56;12.03;;;10.90;;
4001;SDS011;2015;48.670;9.060;2022-09-24T17:30:28;11.97;;;10.87;;
4001;SDS011;2015;48.670;9.060;2022-09-24T17:33:00;11.07;;;9.97;;
4001;SDS011;2015;48.670;9.060;2022-09-24T17:35:31;9.97;;;9.03;;
4001;SDS011;2015;48.670;9.060;2022-09-24T17:38:03;10.23;;;9.10;;
4001;SDS011;2015;48.670;9.060;2022-09-24T17:40:35;10.57;;;9.57;;